sensor_id;sensor_type;location;lat;lon;timestamp;P1;durP1;ratioP1;P2;durP2;ratioP2
79533;SDS011;68982;52.160;6.736;2023-04-28T00:02:10;9.07;;;3.60;;
79533;SDS011;68982;52.160;6.736;2023-04-28T00:04:36;9.18;;;3.72;;
79533;SDS011;68982;52.160;6.736;2023-04-28T00:07:01;6.13;;;3.40;;
79533;SDS011;68982;52.160;6.736;2023-04-28T00:09:26;5.15;;;3.30;;
79533;SDS011;68982;52.160;6.736;2023-04-28T00:11:52;6.93;;;3.40;;
79533;SDS011;68982;52.160;6.736;2023-04-28T00:14:17;8.00;;;3.40;;
79533;SDS011;68982;52.160;6.736;2023-04-28T00:16:42;7.23;;;4.00;;
79533;SDS011;68982;52.160;6.736;2023-04-28T00:19:08;6.93;;;3.70;;
79533;SDS011;68982;52.160;6.736;2023-04-28T00:21:33;5.55;;;3.40;;
79533;SDS011;68982;52.160;6.736;2023-04-28T00:23:58;5.45;;;3.30;;
79533;SDS011;68982;52.160;6.736;2023-04-28T00:26:24;6.67;;;3.67;;
79533;SDS011;68982;52.160;6.736;2023-04-28T00:28:49;5.00;;;3.17;;
79533;SDS011;68982;52.160;6.736;2023-04-28T00:31:15;4.70;;;3.30;;
79533;SDS011;68982;52.160;6.736;2023-04-28T00:33:40;4.93;;;3.20;;
79533;SDS011;68982;52.160;6.736;2023-04-28T00:36:07;7.45;;;3.50;;
79533;SDS011;68982;52.160;6.736;2023-04-28T00:38:33;5.72;;;4.15;;
79533;SDS011;68982;52.160;6.736;2023-04-28T00:40:58;6.03;;;3.65;;
79533;SDS011;68982;52.160;6.736;2023-04-28T00:43:24;7.38;;;3.90;;
79533;SDS011;68982;52.160;6.736;2023-04-28T00:45:49;6.03;;;3.13;;
79533;SDS011;68982;52.160;6.736;2023-04-28T00:48:16;5.32;;;3.35;;
79533;SDS011;68982;52.160;6.736;2023-04-28T00:50:42;6.53;;;3.35;;
79533;SDS011;68982;52.160;6.736;2023-04-28T00:53:09;7.88;;;3.58;;
79533;SDS011;68982;52.160;6.736;2023-04-28T00:55:35;8.38;;;3.95;;
79533;SDS011;68982;52.160;6.736;2023-04-28T00:58:01;6.28;;;3.65;;
79533;SDS011;68982;52.160;6.736;2023-04-28T01:00:27;9.85;;;3.92;;
79533;SDS011;68982;52.160;6.736;2023-04-28T01:02:52;5.57;;;3.65;;
79533;SDS011;68982;52.160;6.736;2023-04-28T01:05:19;6.03;;;3.45;;
79533;SDS011;68982;52.160;6.736;2023-04-28T01:07:44;7.95;;;4.32;;
79533;SDS011;68982;52.160;6.736;2023-04-28T01:10:10;6.60;;;3.50;;
79533;SDS011;68982;52.160;6.736;2023-04-28T01:12:35;7.78;;;3.20;;
79533;SDS011;68982;52.160;6.736;2023-04-28T01:15:00;7.88;;;3.40;;
79533;SDS011;68982;52.160;6.736;2023-04-28T01:17:26;6.78;;;3.63;;
79533;SDS011;68982;52.160;6.736;2023-04-28T01:19:52;8.38;;;4.22;;
79533;SDS011;68982;52.160;6.736;2023-04-28T01:22:17;6.15;;;3.88;;
79533;SDS011;68982;52.160;6.736;2023-04-28T01:24:43;6.63;;;3.83;;
79533;SDS011;68982;52.160;6.736;2023-04-28T01:27:08;5.43;;;3.90;;
79533;SDS011;68982;52.160;6.736;2023-04-28T01:29:34;8.35;;;3.85;;
79533;SDS011;68982;52.160;6.736;2023-04-28T01:31:59;9.83;;;3.60;;
79533;SDS011;68982;52.160;6.736;2023-04-28T01:34:24;6.25;;;3.83;;
79533;SDS011;68982;52.160;6.736;2023-04-28T01:36:50;7.22;;;3.80;;
79533;SDS011;68982;52.160;6.736;2023-04-28T01:39:15;7.30;;;3.67;;
79533;SDS011;68982;52.160;6.736;2023-04-28T01:41:41;5.03;;;3.30;;
79533;SDS011;68982;52.160;6.736;2023-04-28T01:44:06;7.53;;;3.83;;
79533;SDS011;68982;52.160;6.736;2023-04-28T01:46:32;6.15;;;3.53;;
79533;SDS011;68982;52.160;6.736;2023-04-28T01:48:58;5.80;;;3.63;;
79533;SDS011;68982;52.160;6.736;2023-04-28T01:51:23;8.90;;;4.03;;
79533;SDS011;68982;52.160;6.736;2023-04-28T01:53:48;6.15;;;3.80;;
79533;SDS011;68982;52.160;6.736;2023-04-28T01:56:14;7.07;;;3.95;;
79533;SDS011;68982;52.160;6.736;2023-04-28T01:58:39;6.65;;;3.70;;
79533;SDS011;68982;52.160;6.736;2023-04-28T02:01:05;7.13;;;3.50;;
79533;SDS011;68982;52.160;6.736;2023-04-28T02:03:30;6.97;;;3.80;;
79533;SDS011;68982;52.160;6.736;2023-04-28T02:05:55;9.40;;;4.18;;
79533;SDS011;68982;52.160;6.736;2023-04-28T02:08:22;7.07;;;4.18;;
79533;SDS011;68982;52.160;6.736;2023-04-28T02:10:47;5.63;;;3.50;;
79533;SDS011;68982;52.160;6.736;2023-04-28T02:13:12;9.17;;;3.83;;
79533;SDS011;68982;52.160;6.736;2023-04-28T02:15:39;5.40;;;3.65;;
79533;SDS011;68982;52.160;6.736;2023-04-28T02:18:05;5.57;;;4.15;;
79533;SDS011;68982;52.160;6.736;2023-04-28T02:20:30;6.13;;;3.65;;
79533;SDS011;68982;52.160;6.736;2023-04-28T02:22:56;10.20;;;4.23;;
79533;SDS011;68982;52.160;6.736;2023-04-28T02:25:21;8.17;;;4.07;;
79533;SDS011;68982;52.160;6.736;2023-04-28T02:27:46;5.88;;;3.63;;
79533;SDS011;68982;52.160;6.736;2023-04-28T02:30:12;6.15;;;3.60;;
79533;SDS011;68982;52.160;6.736;2023-04-28T02:32:37;7.10;;;3.90;;
79533;SDS011;68982;52.160;6.736;2023-04-28T02:35:03;6.70;;;3.70;;
79533;SDS011;68982;52.160;6.736;2023-04-28T02:37:29;7.82;;;3.63;;
79533;SDS011;68982;52.160;6.736;2023-04-28T02:39:54;6.32;;;3.85;;
79533;SDS011;68982;52.160;6.736;2023-04-28T02:42:19;7.87;;;4.47;;
79533;SDS011;68982;52.160;6.736;2023-04-28T02:44:45;6.50;;;3.70;;
79533;SDS011;68982;52.160;6.736;2023-04-28T02:47:10;9.30;;;4.28;;
79533;SDS011;68982;52.160;6.736;2023-04-28T02:49:36;8.65;;;4.38;;
79533;SDS011;68982;52.160;6.736;2023-04-28T02:52:01;6.10;;;4.05;;
79533;SDS011;68982;52.160;6.736;2023-04-28T02:54:26;8.63;;;4.43;;
79533;SDS011;68982;52.160;6.736;2023-04-28T02:56:52;8.10;;;3.70;;
79533;SDS011;68982;52.160;6.736;2023-04-28T02:59:18;7.10;;;3.85;;
79533;SDS011;68982;52.160;6.736;2023-04-28T03:01:44;5.57;;;3.67;;
79533;SDS011;68982;52.160;6.736;2023-04-28T03:04:10;6.85;;;4.03;;
79533;SDS011;68982;52.160;6.736;2023-04-28T03:06:35;5.13;;;3.70;;
79533;SDS011;68982;52.160;6.736;2023-04-28T03:09:00;9.10;;;3.92;;
79533;SDS011;68982;52.160;6.736;2023-04-28T03:11:26;5.07;;;3.57;;
79533;SDS011;68982;52.160;6.736;2023-04-28T03:13:51;6.53;;;3.90;;
79533;SDS011;68982;52.160;6.736;2023-04-28T03:16:16;7.53;;;4.10;;
79533;SDS011;68982;52.160;6.736;2023-04-28T03:18:42;5.80;;;3.93;;
79533;SDS011;68982;52.160;6.736;2023-04-28T03:21:07;7.20;;;3.73;;
79533;SDS011;68982;52.160;6.736;2023-04-28T03:23:32;8.70;;;3.72;;
79533;SDS011;68982;52.160;6.736;2023-04-28T03:25:57;7.07;;;4.07;;
79533;SDS011;68982;52.160;6.736;2023-04-28T03:28:23;8.90;;;3.63;;
79533;SDS011;68982;52.160;6.736;2023-04-28T03:30:48;8.25;;;4.53;;
79533;SDS011;68982;52.160;6.736;2023-04-28T03:33:14;7.57;;;4.10;;
79533;SDS011;68982;52.160;6.736;2023-04-28T03:35:39;7.28;;;3.90;;
79533;SDS011;68982;52.160;6.736;2023-04-28T03:38:04;6.10;;;3.93;;
79533;SDS011;68982;52.160;6.736;2023-04-28T03:40:30;8.60;;;4.57;;
79533;SDS011;68982;52.160;6.736;2023-04-28T03:42:56;8.33;;;4.53;;
79533;SDS011;68982;52.160;6.736;2023-04-28T03:45:22;5.90;;;3.80;;
79533;SDS011;68982;52.160;6.736;2023-04-28T03:47:47;8.65;;;3.92;;
79533;SDS011;68982;52.160;6.736;2023-04-28T03:50:13;7.67;;;3.63;;
79533;SDS011;68982;52.160;6.736;2023-04-28T03:52:38;6.40;;;4.25;;
79533;SDS011;68982;52.160;6.736;2023-04-28T03:55:03;8.60;;;3.58;;
79533;SDS011;68982;52.160;6.736;2023-04-28T03:57:29;7.25;;;4.00;;
79533;SDS011;68982;52.160;6.736;2023-04-28T03:59:54;7.78;;;3.95;;
79533;SDS011;68982;52.160;6.736;2023-04-28T04:02:20;7.20;;;4.03;;
79533;SDS011;68982;52.160;6.736;2023-04-28T04:04:45;5.97;;;3.50;;
79533;SDS011;68982;52.160;6.736;2023-04-28T04:07:11;7.47;;;3.70;;
79533;SDS011;68982;52.160;6.736;2023-04-28T04:09:37;8.57;;;3.90;;
79533;SDS011;68982;52.160;6.736;2023-04-28T04:12:02;5.20;;;3.70;;
79533;SDS011;68982;52.160;6.736;2023-04-28T04:14:28;6.68;;;3.78;;
79533;SDS011;68982;52.160;6.736;2023-04-28T04:16:53;6.53;;;4.63;;
79533;SDS011;68982;52.160;6.736;2023-04-28T04:19:19;7.97;;;4.30;;
79533;SDS011;68982;52.160;6.736;2023-04-28T04:21:45;5.65;;;3.70;;
79533;SDS011;68982;52.160;6.736;2023-04-28T04:24:10;7.63;;;4.95;;
79533;SDS011;68982;52.160;6.736;2023-04-28T04:26:35;7.20;;;4.30;;
79533;SDS011;68982;52.160;6.736;2023-04-28T04:29:01;5.85;;;3.90;;
79533;SDS011;68982;52.160;6.736;2023-04-28T04:31:26;8.50;;;4.50;;
79533;SDS011;68982;52.160;6.736;2023-04-28T04:33:52;10.82;;;4.70;;
79533;SDS011;68982;52.160;6.736;2023-04-28T04:36:17;7.75;;;4.25;;
79533;SDS011;68982;52.160;6.736;2023-04-28T04:38:42;8.95;;;4.45;;
79533;SDS011;68982;52.160;6.736;2023-04-28T04:41:08;6.57;;;4.47;;
79533;SDS011;68982;52.160;6.736;2023-04-28T04:43:33;6.43;;;4.20;;
79533;SDS011;68982;52.160;6.736;2023-04-28T04:45:58;7.40;;;5.00;;
79533;SDS011;68982;52.160;6.736;2023-04-28T04:48:24;9.45;;;4.35;;
79533;SDS011;68982;52.160;6.736;2023-04-28T04:50:49;9.90;;;4.93;;
79533;SDS011;68982;52.160;6.736;2023-04-28T04:53:15;7.95;;;4.80;;
79533;SDS011;68982;52.160;6.736;2023-04-28T04:55:40;8.10;;;4.63;;
79533;SDS011;68982;52.160;6.736;2023-04-28T04:58:06;9.30;;;5.07;;
79533;SDS011;68982;52.160;6.736;2023-04-28T05:00:31;8.05;;;4.97;;
79533;SDS011;68982;52.160;6.736;2023-04-28T05:02:57;10.88;;;5.28;;
79533;SDS011;68982;52.160;6.736;2023-04-28T05:05:23;9.40;;;5.05;;
79533;SDS011;68982;52.160;6.736;2023-04-28T05:07:48;8.07;;;4.97;;
79533;SDS011;68982;52.160;6.736;2023-04-28T05:10:13;7.20;;;4.70;;
79533;SDS011;68982;52.160;6.736;2023-04-28T05:12:39;8.23;;;5.32;;
79533;SDS011;68982;52.160;6.736;2023-04-28T05:15:05;9.35;;;4.97;;
79533;SDS011;68982;52.160;6.736;2023-04-28T05:17:31;10.02;;;5.18;;
79533;SDS011;68982;52.160;6.736;2023-04-28T05:19:57;7.68;;;5.53;;
79533;SDS011;68982;52.160;6.736;2023-04-28T05:22:22;9.47;;;4.83;;
79533;SDS011;68982;52.160;6.736;2023-04-28T05:24:47;10.07;;;5.32;;
79533;SDS011;68982;52.160;6.736;2023-04-28T05:27:13;8.98;;;4.95;;
79533;SDS011;68982;52.160;6.736;2023-04-28T05:29:38;9.97;;;4.93;;
79533;SDS011;68982;52.160;6.736;2023-04-28T05:32:03;12.23;;;6.53;;
79533;SDS011;68982;52.160;6.736;2023-04-28T05:34:29;8.60;;;5.60;;
79533;SDS011;68982;52.160;6.736;2023-04-28T05:36:54;10.03;;;5.67;;
79533;SDS011;68982;52.160;6.736;2023-04-28T05:39:20;9.52;;;5.78;;
79533;SDS011;68982;52.160;6.736;2023-04-28T05:41:45;9.25;;;5.70;;
79533;SDS011;68982;52.160;6.736;2023-04-28T05:44:10;8.70;;;5.83;;
79533;SDS011;68982;52.160;6.736;2023-04-28T05:46:36;11.07;;;6.10;;
79533;SDS011;68982;52.160;6.736;2023-04-28T05:49:01;11.27;;;6.03;;
79533;SDS011;68982;52.160;6.736;2023-04-28T05:51:27;8.38;;;5.28;;
79533;SDS011;68982;52.160;6.736;2023-04-28T05:53:52;9.65;;;5.78;;
79533;SDS011;68982;52.160;6.736;2023-04-28T05:56:18;8.93;;;6.07;;
79533;SDS011;68982;52.160;6.736;2023-04-28T05:58:44;12.18;;;6.03;;
79533;SDS011;68982;52.160;6.736;2023-04-28T06:01:11;10.65;;;6.53;;
79533;SDS011;68982;52.160;6.736;2023-04-28T06:03:36;9.80;;;6.60;;
79533;SDS011;68982;52.160;6.736;2023-04-28T06:06:01;11.77;;;6.50;;
79533;SDS011;68982;52.160;6.736;2023-04-28T06:08:27;11.77;;;7.07;;
79533;SDS011;68982;52.160;6.736;2023-04-28T06:10:52;12.60;;;6.50;;
79533;SDS011;68982;52.160;6.736;2023-04-28T06:13:17;11.53;;;6.77;;
79533;SDS011;68982;52.160;6.736;2023-04-28T06:15:43;11.67;;;6.37;;
79533;SDS011;68982;52.160;6.736;2023-04-28T06:18:09;10.68;;;6.95;;
79533;SDS011;68982;52.160;6.736;2023-04-28T06:20:35;12.68;;;7.05;;
79533;SDS011;68982;52.160;6.736;2023-04-28T06:23:00;9.48;;;6.88;;
79533;SDS011;68982;52.160;6.736;2023-04-28T06:25:27;11.93;;;6.70;;
79533;SDS011;68982;52.160;6.736;2023-04-28T06:27:53;12.63;;;7.68;;
79533;SDS011;68982;52.160;6.736;2023-04-28T06:30:19;9.70;;;7.10;;
79533;SDS011;68982;52.160;6.736;2023-04-28T06:32:46;30.75;;;16.00;;
79533;SDS011;68982;52.160;6.736;2023-04-28T06:35:11;27.65;;;14.70;;
79533;SDS011;68982;52.160;6.736;2023-04-28T06:37:37;26.10;;;15.30;;
79533;SDS011;68982;52.160;6.736;2023-04-28T06:40:02;28.05;;;17.25;;
79533;SDS011;68982;52.160;6.736;2023-04-28T06:42:28;32.15;;;21.45;;
79533;SDS011;68982;52.160;6.736;2023-04-28T06:44:53;23.90;;;13.93;;
79533;SDS011;68982;52.160;6.736;2023-04-28T06:47:18;24.20;;;15.35;;
79533;SDS011;68982;52.160;6.736;2023-04-28T06:49:44;19.63;;;10.88;;
79533;SDS011;68982;52.160;6.736;2023-04-28T06:52:11;15.23;;;9.30;;
79533;SDS011;68982;52.160;6.736;2023-04-28T06:54:38;30.25;;;20.52;;
79533;SDS011;68982;52.160;6.736;2023-04-28T06:57:03;26.40;;;16.23;;
79533;SDS011;68982;52.160;6.736;2023-04-28T06:59:29;18.95;;;12.75;;
79533;SDS011;68982;52.160;6.736;2023-04-28T07:01:55;17.58;;;10.43;;
79533;SDS011;68982;52.160;6.736;2023-04-28T07:04:20;16.90;;;12.15;;
79533;SDS011;68982;52.160;6.736;2023-04-28T07:06:46;17.00;;;13.25;;
79533;SDS011;68982;52.160;6.736;2023-04-28T07:09:11;16.50;;;9.93;;
79533;SDS011;68982;52.160;6.736;2023-04-28T07:11:37;16.00;;;9.85;;
79533;SDS011;68982;52.160;6.736;2023-04-28T07:14:02;14.30;;;8.63;;
79533;SDS011;68982;52.160;6.736;2023-04-28T07:16:27;11.53;;;7.60;;
79533;SDS011;68982;52.160;6.736;2023-04-28T07:18:52;11.43;;;8.10;;
79533;SDS011;68982;52.160;6.736;2023-04-28T07:21:18;12.15;;;7.82;;
79533;SDS011;68982;52.160;6.736;2023-04-28T07:23:45;12.07;;;8.30;;
79533;SDS011;68982;52.160;6.736;2023-04-28T07:26:11;14.30;;;11.07;;
79533;SDS011;68982;52.160;6.736;2023-04-28T07:28:40;12.13;;;8.07;;
79533;SDS011;68982;52.160;6.736;2023-04-28T07:31:05;13.30;;;9.32;;
79533;SDS011;68982;52.160;6.736;2023-04-28T07:33:30;14.43;;;9.10;;
79533;SDS011;68982;52.160;6.736;2023-04-28T07:35:56;15.90;;;9.32;;
79533;SDS011;68982;52.160;6.736;2023-04-28T07:38:21;14.88;;;10.05;;
79533;SDS011;68982;52.160;6.736;2023-04-28T07:40:47;15.30;;;10.82;;
79533;SDS011;68982;52.160;6.736;2023-04-28T07:43:12;14.88;;;9.25;;
79533;SDS011;68982;52.160;6.736;2023-04-28T07:45:38;13.60;;;9.35;;
79533;SDS011;68982;52.160;6.736;2023-04-28T07:48:04;15.63;;;9.88;;
79533;SDS011;68982;52.160;6.736;2023-04-28T07:50:30;13.15;;;9.30;;
79533;SDS011;68982;52.160;6.736;2023-04-28T07:52:55;14.77;;;9.37;;
79533;SDS011;68982;52.160;6.736;2023-04-28T07:55:21;14.27;;;9.93;;
79533;SDS011;68982;52.160;6.736;2023-04-28T07:57:47;15.70;;;9.75;;
79533;SDS011;68982;52.160;6.736;2023-04-28T08:00:13;14.98;;;10.10;;
79533;SDS011;68982;52.160;6.736;2023-04-28T08:02:39;16.00;;;9.95;;
79533;SDS011;68982;52.160;6.736;2023-04-28T08:05:04;16.92;;;10.77;;
79533;SDS011;68982;52.160;6.736;2023-04-28T08:07:31;18.48;;;10.52;;
79533;SDS011;68982;52.160;6.736;2023-04-28T08:09:57;15.82;;;10.18;;
79533;SDS011;68982;52.160;6.736;2023-04-28T08:12:22;17.20;;;10.60;;
79533;SDS011;68982;52.160;6.736;2023-04-28T08:14:48;19.30;;;11.40;;
79533;SDS011;68982;52.160;6.736;2023-04-28T08:17:13;18.35;;;11.85;;
79533;SDS011;68982;52.160;6.736;2023-04-28T08:19:39;17.17;;;11.05;;
79533;SDS011;68982;52.160;6.736;2023-04-28T08:22:04;16.70;;;11.65;;
79533;SDS011;68982;52.160;6.736;2023-04-28T08:24:31;17.63;;;11.50;;
79533;SDS011;68982;52.160;6.736;2023-04-28T08:26:59;20.55;;;12.25;;
79533;SDS011;68982;52.160;6.736;2023-04-28T08:29:30;18.73;;;11.20;;
79533;SDS011;68982;52.160;6.736;2023-04-28T08:31:56;16.85;;;11.88;;
79533;SDS011;68982;52.160;6.736;2023-04-28T08:34:22;14.30;;;10.23;;
79533;SDS011;68982;52.160;6.736;2023-04-28T08:36:48;17.00;;;11.40;;
79533;SDS011;68982;52.160;6.736;2023-04-28T08:39:13;18.52;;;11.30;;
79533;SDS011;68982;52.160;6.736;2023-04-28T08:41:38;15.70;;;10.70;;
79533;SDS011;68982;52.160;6.736;2023-04-28T08:44:06;16.77;;;11.00;;
79533;SDS011;68982;52.160;6.736;2023-04-28T08:46:33;17.00;;;12.63;;
79533;SDS011;68982;52.160;6.736;2023-04-28T08:48:59;16.48;;;12.10;;
79533;SDS011;68982;52.160;6.736;2023-04-28T08:51:34;16.42;;;11.52;;
79533;SDS011;68982;52.160;6.736;2023-04-28T08:54:08;16.17;;;11.15;;
79533;SDS011;68982;52.160;6.736;2023-04-28T08:56:35;17.45;;;11.55;;
79533;SDS011;68982;52.160;6.736;2023-04-28T08:59:03;14.95;;;10.73;;
79533;SDS011;68982;52.160;6.736;2023-04-28T09:01:29;16.15;;;10.88;;
79533;SDS011;68982;52.160;6.736;2023-04-28T09:03:55;14.57;;;10.68;;
79533;SDS011;68982;52.160;6.736;2023-04-28T09:06:21;15.45;;;10.65;;
79533;SDS011;68982;52.160;6.736;2023-04-28T09:08:47;18.02;;;10.50;;
79533;SDS011;68982;52.160;6.736;2023-04-28T09:11:12;15.13;;;10.43;;
79533;SDS011;68982;52.160;6.736;2023-04-28T09:13:38;18.02;;;10.88;;
79533;SDS011;68982;52.160;6.736;2023-04-28T09:16:05;15.02;;;9.98;;
79533;SDS011;68982;52.160;6.736;2023-04-28T09:18:31;14.45;;;10.60;;
79533;SDS011;68982;52.160;6.736;2023-04-28T09:21:06;15.93;;;9.88;;
79533;SDS011;68982;52.160;6.736;2023-04-28T09:23:33;14.70;;;10.15;;
79533;SDS011;68982;52.160;6.736;2023-04-28T09:26:13;12.68;;;9.80;;
79533;SDS011;68982;52.160;6.736;2023-04-28T09:28:38;13.50;;;9.88;;
79533;SDS011;68982;52.160;6.736;2023-04-28T09:31:04;15.40;;;10.80;;
79533;SDS011;68982;52.160;6.736;2023-04-28T09:33:29;15.40;;;10.95;;
79533;SDS011;68982;52.160;6.736;2023-04-28T09:35:54;14.07;;;9.80;;
79533;SDS011;68982;52.160;6.736;2023-04-28T09:38:20;16.45;;;10.35;;
79533;SDS011;68982;52.160;6.736;2023-04-28T09:40:54;12.27;;;9.63;;
79533;SDS011;68982;52.160;6.736;2023-04-28T09:45:56;14.57;;;10.05;;
79533;SDS011;68982;52.160;6.736;2023-04-28T09:48:26;18.35;;;10.75;;
79533;SDS011;68982;52.160;6.736;2023-04-28T09:51:02;14.70;;;10.25;;
79533;SDS011;68982;52.160;6.736;2023-04-28T09:53:30;13.27;;;9.98;;
79533;SDS011;68982;52.160;6.736;2023-04-28T09:55:56;16.27;;;10.77;;
79533;SDS011;68982;52.160;6.736;2023-04-28T09:58:23;14.25;;;10.45;;
79533;SDS011;68982;52.160;6.736;2023-04-28T10:00:53;17.20;;;10.10;;
79533;SDS011;68982;52.160;6.736;2023-04-28T10:03:21;16.88;;;11.20;;
79533;SDS011;68982;52.160;6.736;2023-04-28T10:08:14;17.70;;;11.55;;
79533;SDS011;68982;52.160;6.736;2023-04-28T10:10:39;14.95;;;9.82;;
79533;SDS011;68982;52.160;6.736;2023-04-28T10:13:06;18.30;;;12.13;;
79533;SDS011;68982;52.160;6.736;2023-04-28T10:15:32;14.70;;;10.52;;
79533;SDS011;68982;52.160;6.736;2023-04-28T10:17:58;17.35;;;11.75;;
79533;SDS011;68982;52.160;6.736;2023-04-28T10:20:24;14.45;;;10.90;;
79533;SDS011;68982;52.160;6.736;2023-04-28T10:23:01;15.13;;;10.85;;
79533;SDS011;68982;52.160;6.736;2023-04-28T10:25:32;19.80;;;12.45;;
79533;SDS011;68982;52.160;6.736;2023-04-28T10:28:03;15.98;;;11.45;;
79533;SDS011;68982;52.160;6.736;2023-04-28T10:30:30;21.95;;;12.88;;
79533;SDS011;68982;52.160;6.736;2023-04-28T10:35:48;18.25;;;12.95;;
79533;SDS011;68982;52.160;6.736;2023-04-28T10:38:14;18.30;;;12.52;;
79533;SDS011;68982;52.160;6.736;2023-04-28T10:40:42;19.70;;;13.77;;
79533;SDS011;68982;52.160;6.736;2023-04-28T10:43:09;19.98;;;13.63;;
79533;SDS011;68982;52.160;6.736;2023-04-28T10:48:16;19.55;;;13.90;;
79533;SDS011;68982;52.160;6.736;2023-04-28T10:58:49;20.40;;;15.02;;
79533;SDS011;68982;52.160;6.736;2023-04-28T11:06:38;21.80;;;14.95;;
79533;SDS011;68982;52.160;6.736;2023-04-28T11:19:18;31.60;;;21.13;;
79533;SDS011;68982;52.160;6.736;2023-04-28T11:21:48;29.55;;;20.63;;
79533;SDS011;68982;52.160;6.736;2023-04-28T11:24:15;31.17;;;19.58;;
79533;SDS011;68982;52.160;6.736;2023-04-28T11:26:41;26.98;;;19.58;;
79533;SDS011;68982;52.160;6.736;2023-04-28T11:29:07;27.52;;;20.27;;
79533;SDS011;68982;52.160;6.736;2023-04-28T11:31:34;28.35;;;21.00;;
79533;SDS011;68982;52.160;6.736;2023-04-28T11:34:00;28.95;;;20.30;;
79533;SDS011;68982;52.160;6.736;2023-04-28T11:36:30;34.67;;;22.73;;
79533;SDS011;68982;52.160;6.736;2023-04-28T11:38:59;32.10;;;22.95;;
79533;SDS011;68982;52.160;6.736;2023-04-28T11:41:25;30.92;;;23.25;;
79533;SDS011;68982;52.160;6.736;2023-04-28T11:43:51;36.22;;;23.10;;
79533;SDS011;68982;52.160;6.736;2023-04-28T11:46:22;30.67;;;20.35;;
79533;SDS011;68982;52.160;6.736;2023-04-28T11:48:58;31.23;;;21.48;;
79533;SDS011;68982;52.160;6.736;2023-04-28T11:54:02;35.72;;;21.00;;
79533;SDS011;68982;52.160;6.736;2023-04-28T11:56:35;36.13;;;23.35;;
79533;SDS011;68982;52.160;6.736;2023-04-28T11:59:05;37.58;;;23.83;;
79533;SDS011;68982;52.160;6.736;2023-04-28T12:01:32;38.78;;;25.23;;
79533;SDS011;68982;52.160;6.736;2023-04-28T12:04:01;35.67;;;23.55;;
79533;SDS011;68982;52.160;6.736;2023-04-28T12:06:27;37.35;;;25.33;;
79533;SDS011;68982;52.160;6.736;2023-04-28T12:08:53;36.22;;;25.40;;
79533;SDS011;68982;52.160;6.736;2023-04-28T12:11:19;38.67;;;25.83;;
79533;SDS011;68982;52.160;6.736;2023-04-28T12:14:01;38.65;;;24.88;;
79533;SDS011;68982;52.160;6.736;2023-04-28T12:16:40;40.05;;;26.13;;
79533;SDS011;68982;52.160;6.736;2023-04-28T12:19:09;42.03;;;26.75;;
79533;SDS011;68982;52.160;6.736;2023-04-28T12:21:36;42.50;;;27.08;;
79533;SDS011;68982;52.160;6.736;2023-04-28T12:26:41;43.15;;;25.73;;
79533;SDS011;68982;52.160;6.736;2023-04-28T12:29:06;39.25;;;25.00;;
79533;SDS011;68982;52.160;6.736;2023-04-28T12:34:11;35.30;;;23.98;;
79533;SDS011;68982;52.160;6.736;2023-04-28T12:36:36;34.23;;;22.00;;
79533;SDS011;68982;52.160;6.736;2023-04-28T12:39:02;34.58;;;22.88;;
79533;SDS011;68982;52.160;6.736;2023-04-28T12:41:27;33.15;;;22.05;;
79533;SDS011;68982;52.160;6.736;2023-04-28T12:43:53;31.13;;;21.45;;
79533;SDS011;68982;52.160;6.736;2023-04-28T12:46:18;30.73;;;21.47;;
79533;SDS011;68982;52.160;6.736;2023-04-28T12:48:43;28.60;;;20.60;;
79533;SDS011;68982;52.160;6.736;2023-04-28T12:51:08;26.83;;;19.70;;
79533;SDS011;68982;52.160;6.736;2023-04-28T12:53:34;24.05;;;18.30;;
79533;SDS011;68982;52.160;6.736;2023-04-28T12:55:59;24.83;;;18.83;;
79533;SDS011;68982;52.160;6.736;2023-04-28T12:58:25;24.08;;;18.17;;
79533;SDS011;68982;52.160;6.736;2023-04-28T13:00:50;24.17;;;18.35;;
79533;SDS011;68982;52.160;6.736;2023-04-28T13:03:15;26.37;;;18.33;;
79533;SDS011;68982;52.160;6.736;2023-04-28T13:05:41;27.77;;;18.87;;
79533;SDS011;68982;52.160;6.736;2023-04-28T13:08:06;30.23;;;20.63;;
79533;SDS011;68982;52.160;6.736;2023-04-28T13:10:33;23.70;;;17.92;;
79533;SDS011;68982;52.160;6.736;2023-04-28T13:12:58;20.77;;;15.67;;
79533;SDS011;68982;52.160;6.736;2023-04-28T13:15:23;20.70;;;15.25;;
79533;SDS011;68982;52.160;6.736;2023-04-28T13:17:49;20.20;;;14.82;;
79533;SDS011;68982;52.160;6.736;2023-04-28T13:20:14;17.83;;;13.77;;
79533;SDS011;68982;52.160;6.736;2023-04-28T13:22:40;18.23;;;13.88;;
79533;SDS011;68982;52.160;6.736;2023-04-28T13:25:06;16.02;;;12.80;;
79533;SDS011;68982;52.160;6.736;2023-04-28T13:27:31;18.45;;;13.43;;
79533;SDS011;68982;52.160;6.736;2023-04-28T13:29:57;21.38;;;13.63;;
79533;SDS011;68982;52.160;6.736;2023-04-28T13:32:23;16.73;;;13.95;;
79533;SDS011;68982;52.160;6.736;2023-04-28T13:34:48;15.18;;;12.27;;
79533;SDS011;68982;52.160;6.736;2023-04-28T13:37:13;14.00;;;10.63;;
79533;SDS011;68982;52.160;6.736;2023-04-28T13:39:39;15.80;;;11.10;;
79533;SDS011;68982;52.160;6.736;2023-04-28T13:42:04;33.50;;;21.88;;
79533;SDS011;68982;52.160;6.736;2023-04-28T13:44:30;15.23;;;11.07;;
79533;SDS011;68982;52.160;6.736;2023-04-28T13:46:56;12.77;;;9.67;;
79533;SDS011;68982;52.160;6.736;2023-04-28T13:49:21;12.20;;;9.82;;
79533;SDS011;68982;52.160;6.736;2023-04-28T13:51:47;12.27;;;9.70;;
79533;SDS011;68982;52.160;6.736;2023-04-28T13:54:13;15.35;;;10.38;;
79533;SDS011;68982;52.160;6.736;2023-04-28T13:56:38;13.77;;;10.27;;
79533;SDS011;68982;52.160;6.736;2023-04-28T13:59:04;12.70;;;9.80;;
79533;SDS011;68982;52.160;6.736;2023-04-28T14:01:29;14.60;;;11.05;;
79533;SDS011;68982;52.160;6.736;2023-04-28T14:03:55;14.40;;;10.63;;
79533;SDS011;68982;52.160;6.736;2023-04-28T14:06:20;14.60;;;10.95;;
79533;SDS011;68982;52.160;6.736;2023-04-28T14:08:46;14.57;;;10.05;;
79533;SDS011;68982;52.160;6.736;2023-04-28T14:11:11;30.08;;;19.88;;
79533;SDS011;68982;52.160;6.736;2023-04-28T14:13:37;22.38;;;15.52;;
79533;SDS011;68982;52.160;6.736;2023-04-28T14:16:02;17.50;;;13.00;;
79533;SDS011;68982;52.160;6.736;2023-04-28T14:18:28;23.92;;;16.90;;
79533;SDS011;68982;52.160;6.736;2023-04-28T14:20:53;24.27;;;15.65;;
79533;SDS011;68982;52.160;6.736;2023-04-28T14:23:19;12.93;;;8.75;;
79533;SDS011;68982;52.160;6.736;2023-04-28T14:25:45;13.00;;;8.27;;
79533;SDS011;68982;52.160;6.736;2023-04-28T14:28:11;12.98;;;8.98;;
79533;SDS011;68982;52.160;6.736;2023-04-28T14:30:36;11.90;;;8.02;;
79533;SDS011;68982;52.160;6.736;2023-04-28T14:33:02;12.15;;;9.50;;
79533;SDS011;68982;52.160;6.736;2023-04-28T14:35:27;11.75;;;7.43;;
79533;SDS011;68982;52.160;6.736;2023-04-28T14:37:54;10.82;;;7.30;;
79533;SDS011;68982;52.160;6.736;2023-04-28T14:40:20;11.10;;;7.22;;
79533;SDS011;68982;52.160;6.736;2023-04-28T14:42:45;11.82;;;7.68;;
79533;SDS011;68982;52.160;6.736;2023-04-28T14:45:11;10.65;;;7.18;;
79533;SDS011;68982;52.160;6.736;2023-04-28T14:47:37;13.15;;;6.63;;
79533;SDS011;68982;52.160;6.736;2023-04-28T14:50:03;9.77;;;5.82;;
79533;SDS011;68982;52.160;6.736;2023-04-28T14:52:29;9.15;;;6.28;;
79533;SDS011;68982;52.160;6.736;2023-04-28T14:54:56;9.90;;;5.80;;
79533;SDS011;68982;52.160;6.736;2023-04-28T14:57:23;8.75;;;5.78;;
79533;SDS011;68982;52.160;6.736;2023-04-28T14:59:48;7.45;;;5.13;;
79533;SDS011;68982;52.160;6.736;2023-04-28T15:02:16;7.10;;;4.55;;
79533;SDS011;68982;52.160;6.736;2023-04-28T15:04:41;7.88;;;5.22;;
79533;SDS011;68982;52.160;6.736;2023-04-28T15:07:07;8.98;;;5.40;;
79533;SDS011;68982;52.160;6.736;2023-04-28T15:09:33;10.13;;;5.80;;
79533;SDS011;68982;52.160;6.736;2023-04-28T15:11:59;8.52;;;5.53;;